Tropical Cyclones
[Index]
Main Index Home Page Stock Weather Photos Extreme Storms Discussion Storm News and Storm Chasing Reports Tropical Cyclones / Hurricanes / Typhoons Weather Data and Links Wild Fires / Bushfires Weather Observation Techniques Weather Picture Catalogue Tornado Pictures and Reports Stock Video Footage and DVDs for sale
Season 1999-2000 Tropical Cyclone ROSITA Track Map
Season 1999-2000 Summaries: [BoM-AU] [JTWC-AU] [JTWC-SIO] [JTWC-SPAC] [JTWC-SH]
<<- Previous TC | BoM 1999-2000 Season | Next TC ->>

click for intensity scale information  Lat/long Grid: Show Hide

 Date Labels: Show Hide

Bureau of Meteorology Tropical Cyclone Data

Name: ROSITA
Number: 841 / 199900_12

14 Apr 2000 04:00 UTC to 20 Apr 2000 22:00 UTC

    date/time    lat    long    hPa   cat  kts
2000-04-14 04    9.5   127.0   1006                     
2000-04-15 04   12.0   122.0   1004         21          
2000-04-15 10   12.2   121.0   1004         21          
2000-04-15 16   12.3   120.0   1000         27          
2000-04-15 22   12.6   119.7   1000         27          
2000-04-16 04   12.9   119.6   1000         27          
2000-04-16 10   13.1   119.5   1000         27          
2000-04-16 16   13.3   119.5   1000         27          
2000-04-16 22   13.6   119.5   1000         27          
2000-04-17 04   14.0   119.5   1000         27          
2000-04-17 10   14.6   119.4   1000         27          
2000-04-17 16   15.2   119.3   1000         27          
2000-04-17 22   15.7   119.3    995    1    35          
2000-04-18 04   16.3   119.3    995    1    35          
2000-04-18 10   16.8   119.3    985    2    49          
2000-04-18 16   17.2   119.4    970    3    64          
2000-04-18 22   17.4   119.9    960    3    76          
2000-04-19 04   17.6   120.3    950    4    84          
2000-04-19 07   17.7   120.7    930    4    101          
2000-04-19 10   17.8   121.1    930    4    101          
2000-04-19 13   17.9   121.6    930    4    101          
2000-04-19 16   18.2   122.0    930    4    101          
2000-04-19 19   18.5   122.5    940    4    93          
2000-04-19 22   18.7   123.0    950    4    84          
2000-04-20 01   19.0   123.5    960    3    76          
2000-04-20 10   19.9   125.7    985    2    49          
2000-04-20 13   20.1   126.6    995    1    35          
2000-04-20 16   20.3   127.7    995    1    35          
2000-04-20 22   20.6   129.7   1000         27          
Winds are 10-min average.

Tropical cyclone tracks developed by Michael Bath using data from the Bureau of Meteorology and Google Maps.


[Australian Severe Weather index] [Copyright Notice] [Email Contacts] [Search This Site] [Privacy Policy]
Document: tropical_cyclone_rosita.htm Updated: 30 May 2013